createdAt,value
2018-08-07T00:01:15.352Z,9.40
2018-08-07T00:03:42.913Z,10.10
2018-08-07T00:06:11.409Z,9.67
2018-08-07T00:08:38.940Z,9.20
2018-08-07T00:11:06.497Z,9.60
2018-08-07T00:13:34.990Z,9.30
2018-08-07T00:16:04.520Z,8.80
2018-08-07T00:18:32.076Z,9.80
2018-08-07T00:20:59.608Z,9.17
2018-08-07T00:23:27.164Z,9.60
2018-08-07T00:25:54.699Z,9.70
2018-08-07T00:28:22.262Z,10.97
2018-08-07T00:30:49.827Z,9.73
2018-08-07T00:33:17.377Z,9.60
2018-08-07T00:35:44.904Z,9.13
2018-08-07T00:38:12.438Z,10.47
2018-08-07T00:40:39.996Z,9.90
2018-08-07T00:43:07.525Z,9.53
2018-08-07T00:45:36.042Z,9.70
2018-08-07T00:48:03.822Z,9.40
2018-08-07T00:50:32.152Z,9.97
2018-08-07T00:52:59.679Z,9.73
2018-08-07T00:55:27.213Z,9.17
2018-08-07T00:57:57.490Z,9.57
2018-08-07T01:00:25.045Z,9.23
2018-08-07T01:02:52.604Z,10.17
2018-08-07T01:05:21.068Z,9.15
2018-08-07T01:07:48.629Z,9.63
2018-08-07T01:10:17.148Z,9.00
2018-08-07T01:12:44.680Z,9.47
2018-08-07T01:15:12.237Z,9.07
2018-08-07T01:17:39.774Z,9.90
2018-08-07T01:20:08.250Z,9.50
2018-08-07T01:22:35.777Z,9.10
2018-08-07T01:25:03.336Z,9.13
2018-08-07T01:27:31.661Z,10.30
2018-08-07T01:29:59.190Z,9.33
2018-08-07T01:32:26.751Z,9.83
2018-08-07T01:34:54.275Z,9.10
2018-08-07T01:37:21.815Z,10.53
2018-08-07T01:39:49.374Z,9.33
2018-08-07T01:42:16.930Z,9.70
2018-08-07T01:44:44.484Z,10.03
2018-08-07T01:47:12.984Z,10.10
2018-08-07T01:49:41.511Z,9.90
2018-08-07T01:52:09.060Z,9.97
2018-08-07T01:54:37.539Z,9.57
2018-08-07T01:57:05.101Z,9.50
2018-08-07T01:59:32.624Z,9.30
2018-08-07T02:02:01.227Z,9.70
2018-08-07T02:04:28.756Z,10.20
2018-08-07T02:06:56.285Z,9.90
2018-08-07T02:09:23.895Z,10.23
2018-08-07T02:11:51.455Z,9.03
2018-08-07T02:14:19.011Z,10.60
2018-08-07T02:16:46.553Z,10.20
2018-08-07T02:19:14.109Z,10.87
2018-08-07T02:21:41.664Z,10.43
2018-08-07T02:24:09.199Z,10.97
2018-08-07T02:26:36.756Z,9.97
2018-08-07T02:29:05.088Z,9.60
2018-08-07T02:31:32.650Z,9.90
2018-08-07T02:34:00.181Z,9.80
2018-08-07T02:36:28.689Z,11.03
2018-08-07T02:38:56.245Z,10.93
2018-08-07T02:41:23.808Z,10.27
2018-08-07T02:43:51.377Z,10.20
2018-08-07T02:46:18.913Z,10.43
2018-08-07T02:48:46.468Z,10.33
2018-08-07T02:51:15.978Z,9.77
2018-08-07T02:53:43.513Z,11.40
2018-08-07T02:56:11.077Z,10.10
2018-08-07T02:58:38.637Z,10.47
2018-08-07T03:01:06.168Z,10.37
2018-08-07T03:03:33.741Z,10.63
2018-08-07T03:06:01.290Z,10.90
2018-08-07T03:08:28.861Z,10.10
2018-08-07T03:10:56.405Z,10.80
2018-08-07T03:13:23.978Z,11.30
2018-08-07T03:15:51.526Z,11.03
2018-08-07T03:18:19.107Z,10.93
2018-08-07T03:20:46.694Z,11.43
2018-08-07T03:23:14.283Z,10.97
2018-08-07T03:25:41.829Z,11.43
2018-08-07T03:28:09.391Z,10.40
2018-08-07T03:30:36.930Z,11.13
2018-08-07T03:33:04.510Z,11.80
2018-08-07T03:35:32.059Z,11.97
2018-08-07T03:37:59.621Z,11.57
2018-08-07T03:40:27.162Z,10.90
2018-08-07T03:42:55.499Z,12.77
2018-08-07T03:45:23.081Z,12.93
2018-08-07T03:47:50.650Z,12.40
2018-08-07T03:50:18.200Z,12.10
2018-08-07T03:52:46.526Z,12.83
2018-08-07T03:55:14.082Z,12.20
2018-08-07T03:57:43.590Z,11.67
2018-08-07T04:00:11.136Z,12.03
2018-08-07T04:02:38.722Z,11.20
2018-08-07T04:05:07.963Z,11.73
2018-08-07T04:07:35.537Z,11.53
2018-08-07T04:10:03.098Z,11.77
2018-08-07T04:12:30.661Z,11.30
2018-08-07T04:14:58.196Z,11.63
2018-08-07T04:17:25.737Z,11.90
2018-08-07T04:19:54.080Z,12.60
2018-08-07T04:22:21.648Z,11.10
2018-08-07T04:24:49.209Z,11.10
2018-08-07T04:27:16.777Z,11.10
2018-08-07T04:29:45.502Z,11.23
2018-08-07T04:32:13.068Z,11.77
2018-08-07T04:34:40.630Z,11.47
2018-08-07T04:37:09.149Z,12.40
2018-08-07T04:39:36.705Z,11.40
2018-08-07T04:42:04.269Z,11.73
2018-08-07T04:44:32.601Z,11.50
2018-08-07T04:47:00.140Z,11.50
2018-08-07T04:49:29.637Z,10.90
2018-08-07T04:51:57.231Z,11.30
2018-08-07T04:54:24.750Z,12.03
2018-08-07T04:56:52.322Z,11.60
2018-08-07T04:59:21.832Z,12.30
2018-08-07T05:01:49.371Z,12.60
2018-08-07T05:04:17.896Z,11.10
2018-08-07T05:06:45.456Z,11.50
2018-08-07T05:09:13.029Z,12.47
2018-08-07T05:11:41.329Z,11.83
2018-08-07T05:14:08.910Z,10.97
2018-08-07T05:16:36.453Z,12.03
2018-08-07T05:19:04.013Z,11.30
2018-08-07T05:21:31.549Z,11.40
2018-08-07T05:24:00.173Z,12.67
2018-08-07T05:26:27.709Z,11.07
2018-08-07T05:28:55.269Z,11.83
2018-08-07T05:31:22.813Z,11.70
2018-08-07T05:33:50.372Z,11.50
2018-08-07T05:36:18.014Z,11.50
2018-08-07T05:38:45.553Z,10.93
2018-08-07T05:41:13.877Z,11.37
2018-08-07T05:43:41.417Z,10.73
2018-08-07T05:46:08.976Z,10.33
2018-08-07T05:48:36.539Z,10.83
2018-08-07T05:51:04.511Z,9.80
2018-08-07T05:53:31.660Z,10.17
2018-08-07T05:55:59.229Z,10.93
2018-08-07T05:58:26.806Z,10.40
2018-08-07T06:00:54.359Z,10.60
2018-08-07T06:03:21.925Z,10.77
2018-08-07T06:05:49.465Z,10.77
2018-08-07T06:08:17.041Z,11.00
2018-08-07T06:10:44.636Z,10.80
2018-08-07T06:13:12.971Z,10.23
2018-08-07T06:15:40.513Z,10.80
2018-08-07T06:18:08.061Z,10.30
2018-08-07T06:20:35.624Z,10.57
2018-08-07T06:23:03.160Z,9.40
2018-08-07T06:25:30.779Z,10.43
2018-08-07T06:27:58.285Z,10.70
2018-08-07T06:30:25.840Z,10.03
2018-08-07T06:32:53.373Z,9.70
2018-08-07T06:35:20.942Z,10.13
2018-08-07T06:37:48.510Z,9.10
2018-08-07T06:40:16.165Z,9.40
2018-08-07T06:42:43.724Z,9.33
2018-08-07T06:45:11.257Z,9.03
2018-08-07T06:47:38.822Z,9.40
2018-08-07T06:50:06.395Z,8.87
2018-08-07T06:52:33.920Z,8.60
2018-08-07T06:55:01.482Z,9.40
2018-08-07T06:57:29.040Z,8.90
2018-08-07T06:59:57.626Z,8.47
2018-08-07T07:02:25.157Z,8.40
2018-08-07T07:04:53.477Z,8.33
2018-08-07T07:07:21.042Z,7.90
2018-08-07T07:09:48.668Z,9.40
2018-08-07T07:12:16.153Z,8.17
2018-08-07T07:14:45.668Z,8.63
2018-08-07T07:17:13.207Z,7.73
2018-08-07T07:19:40.779Z,8.27
2018-08-07T07:22:08.319Z,8.63
2018-08-07T07:24:35.891Z,7.93
2018-08-07T07:27:03.439Z,8.23
2018-08-07T07:29:31.014Z,8.63
2018-08-07T07:31:58.575Z,7.57
2018-08-07T07:34:26.212Z,8.53
2018-08-07T07:36:53.743Z,9.17
2018-08-07T07:39:21.631Z,7.60
2018-08-07T07:41:49.173Z,8.00
2018-08-07T07:44:17.666Z,8.33
2018-08-07T07:46:45.298Z,7.60
2018-08-07T07:49:13.669Z,7.80
2018-08-07T07:51:41.236Z,7.27
2018-08-07T07:54:08.889Z,7.80
2018-08-07T07:56:36.334Z,7.83
2018-08-07T07:59:03.912Z,7.90
2018-08-07T08:01:32.475Z,8.13
2018-08-07T08:04:00.082Z,7.50
2018-08-07T08:06:27.615Z,6.67
2018-08-07T08:08:55.191Z,7.07
2018-08-07T08:11:22.786Z,6.40
2018-08-07T08:13:58.966Z,7.23
2018-08-07T08:16:29.465Z,6.10
2018-08-07T08:18:58.023Z,5.93
2018-08-07T08:21:25.691Z,5.50
2018-08-07T08:23:54.208Z,5.60
2018-08-07T08:26:21.780Z,5.80
2018-08-07T08:28:49.316Z,5.23
2018-08-07T08:31:16.880Z,5.40
2018-08-07T08:33:45.184Z,5.87
2018-08-07T08:36:12.750Z,5.47
2018-08-07T08:38:40.278Z,5.00
2018-08-07T08:41:07.928Z,5.67
2018-08-07T08:43:37.564Z,5.27
2018-08-07T08:46:05.227Z,5.40
2018-08-07T08:48:32.792Z,5.27
2018-08-07T08:51:01.341Z,5.10
2018-08-07T08:53:28.877Z,5.23
2018-08-07T08:55:57.204Z,5.23
2018-08-07T08:58:25.682Z,5.73
2018-08-07T09:00:53.337Z,5.37
2018-08-07T09:03:20.929Z,6.20
2018-08-07T09:05:48.520Z,5.47
2018-08-07T09:08:16.085Z,5.40
2018-08-07T09:10:43.815Z,5.20
2018-08-07T09:13:11.212Z,5.10
2018-08-07T09:15:38.755Z,5.40
2018-08-07T09:18:06.316Z,4.83
2018-08-07T09:20:33.856Z,5.63
2018-08-07T09:23:03.408Z,5.57
2018-08-07T09:25:31.047Z,5.47
2018-08-07T09:27:58.521Z,5.30
2018-08-07T09:30:27.010Z,5.50
2018-08-07T09:32:54.577Z,5.43
2018-08-07T09:35:22.121Z,5.83
2018-08-07T09:37:49.645Z,5.70
2018-08-07T09:40:17.201Z,5.70
2018-08-07T09:42:45.033Z,5.43
2018-08-07T09:45:13.355Z,5.70
2018-08-07T09:47:40.912Z,5.37
2018-08-07T09:50:08.849Z,5.83
2018-08-07T09:52:36.422Z,5.40
2018-08-07T09:55:04.075Z,6.30
2018-08-07T09:57:31.629Z,5.77
2018-08-07T09:59:59.161Z,6.00
2018-08-07T10:02:26.717Z,5.70
2018-08-07T10:04:54.244Z,6.00
2018-08-07T10:07:21.929Z,5.50
2018-08-07T10:09:49.520Z,5.93
2018-08-07T10:12:17.110Z,5.63
2018-08-07T10:14:44.640Z,5.40
2018-08-07T10:17:12.194Z,5.50
2018-08-07T10:19:39.720Z,5.40
2018-08-07T10:22:07.289Z,5.10
2018-08-07T10:24:34.818Z,5.30
2018-08-07T10:27:02.345Z,5.20
2018-08-07T10:29:29.905Z,5.70
2018-08-07T10:31:57.434Z,5.40
2018-08-07T10:34:24.986Z,5.40
2018-08-07T10:36:53.460Z,5.87
2018-08-07T10:39:21.013Z,6.27
2018-08-07T10:41:48.549Z,5.60
2018-08-07T10:44:16.937Z,5.80
2018-08-07T10:46:45.392Z,5.40
2018-08-07T10:49:12.945Z,5.93
2018-08-07T10:51:40.486Z,5.27
2018-08-07T10:54:08.041Z,5.73
2018-08-07T10:56:35.655Z,5.80
2018-08-07T10:59:03.194Z,4.93
2018-08-07T11:01:30.753Z,5.07
2018-08-07T11:03:58.309Z,5.33
2018-08-07T11:06:25.862Z,5.30
2018-08-07T11:08:53.425Z,5.20
2018-08-07T11:11:20.958Z,4.87
2018-08-07T11:13:48.557Z,5.37
2018-08-07T11:16:18.056Z,5.33
2018-08-07T11:18:45.613Z,5.13
2018-08-07T11:21:13.144Z,5.00
2018-08-07T11:23:40.704Z,5.30
2018-08-07T11:26:08.262Z,5.20
2018-08-07T11:28:36.584Z,5.03
2018-08-07T11:31:04.121Z,5.20
2018-08-07T11:33:31.677Z,5.67
2018-08-07T11:35:59.249Z,5.30
2018-08-07T11:38:26.824Z,5.17
2018-08-07T11:40:54.863Z,5.97
2018-08-07T11:43:22.419Z,6.07
2018-08-07T11:45:49.981Z,5.60
2018-08-07T11:48:17.582Z,5.80
2018-08-07T11:50:45.086Z,5.03
2018-08-07T11:53:12.645Z,5.10
2018-08-07T11:55:40.205Z,4.73
2018-08-07T11:58:07.785Z,5.53
2018-08-07T12:00:35.317Z,5.53
2018-08-07T12:03:02.869Z,4.93
2018-08-07T12:05:30.401Z,4.60
2018-08-07T12:07:57.974Z,5.53
2018-08-07T12:10:25.513Z,5.13
2018-08-07T12:12:53.052Z,4.90
2018-08-07T12:15:20.605Z,4.97
2018-08-07T12:17:48.139Z,5.10
2018-08-07T12:20:17.640Z,5.00
2018-08-07T12:22:45.173Z,5.30
2018-08-07T12:25:12.734Z,4.97
2018-08-07T12:27:40.263Z,5.10
2018-08-07T12:30:07.801Z,4.83
2018-08-07T12:32:35.356Z,4.77
2018-08-07T12:35:03.696Z,4.87
2018-08-07T12:37:31.241Z,3.90
2018-08-07T12:39:58.797Z,4.30
2018-08-07T12:42:26.357Z,4.13
2018-08-07T12:44:53.908Z,3.77
2018-08-07T12:47:21.525Z,3.60
2018-08-07T12:49:49.088Z,3.40
2018-08-07T12:52:16.651Z,3.67
2018-08-07T12:54:44.190Z,4.00
2018-08-07T12:57:11.744Z,3.30
2018-08-07T12:59:40.037Z,3.87
2018-08-07T13:02:07.590Z,3.73
2018-08-07T13:04:35.117Z,3.90
2018-08-07T13:07:02.685Z,3.50
2018-08-07T13:09:30.214Z,3.50
2018-08-07T13:11:57.778Z,3.73
2018-08-07T13:14:25.305Z,3.97
2018-08-07T13:16:52.866Z,3.80
2018-08-07T13:19:20.400Z,3.40
2018-08-07T13:21:48.062Z,3.70
2018-08-07T13:24:15.624Z,4.47
2018-08-07T13:26:44.112Z,4.70
2018-08-07T13:29:11.669Z,4.57
2018-08-07T13:31:39.205Z,5.10
2018-08-07T13:34:07.829Z,4.23
2018-08-07T13:36:35.361Z,4.83
2018-08-07T13:39:02.913Z,4.53
2018-08-07T13:41:30.442Z,4.43
2018-08-07T13:43:57.994Z,4.50
2018-08-07T13:46:26.292Z,4.13
2018-08-07T13:48:53.841Z,4.27
2018-08-07T13:51:21.369Z,5.10
2018-08-07T13:53:48.925Z,4.20
2018-08-07T13:56:16.482Z,4.70
2018-08-07T13:58:44.801Z,4.70
2018-08-07T14:01:12.346Z,4.17
2018-08-07T14:03:39.948Z,4.10
2018-08-07T14:06:07.521Z,3.90
2018-08-07T14:08:36.010Z,4.07
2018-08-07T14:11:03.548Z,3.50
2018-08-07T14:13:31.110Z,4.07
2018-08-07T14:15:59.661Z,4.10
2018-08-07T14:18:28.172Z,5.10
2018-08-07T14:20:56.473Z,4.10
2018-08-07T14:23:26.021Z,4.20
2018-08-07T14:25:53.541Z,3.80
2018-08-07T14:28:21.095Z,4.30
2018-08-07T14:30:48.627Z,4.60
2018-08-07T14:33:16.205Z,4.70
2018-08-07T14:35:43.758Z,5.40
2018-08-07T14:38:11.320Z,5.60
2018-08-07T14:40:38.865Z,5.17
2018-08-07T14:43:06.477Z,5.30
2018-08-07T14:45:34.015Z,5.57
2018-08-07T14:48:01.565Z,5.43
2018-08-07T14:50:29.107Z,5.07
2018-08-07T14:52:56.683Z,4.80
2018-08-07T14:55:24.252Z,5.17
2018-08-07T14:57:51.804Z,5.10
2018-08-07T15:00:19.351Z,5.07
2018-08-07T15:02:46.885Z,4.77
2018-08-07T15:05:14.447Z,4.10
2018-08-07T15:07:42.004Z,4.17
2018-08-07T15:10:09.560Z,4.73
2018-08-07T15:12:37.102Z,4.27
2018-08-07T15:15:04.662Z,4.63
2018-08-07T15:17:32.188Z,4.23
2018-08-07T15:19:59.761Z,4.67
2018-08-07T15:22:29.009Z,4.30
2018-08-07T15:24:56.566Z,4.10
2018-08-07T15:27:24.092Z,4.13
2018-08-07T15:29:51.644Z,4.60
2018-08-07T15:32:19.176Z,4.90
2018-08-07T15:34:46.734Z,4.23
2018-08-07T15:37:14.269Z,4.50
2018-08-07T15:39:41.826Z,4.03
2018-08-07T15:42:09.355Z,3.70
2018-08-07T15:44:36.910Z,4.10
2018-08-07T15:47:04.437Z,3.63
2018-08-07T15:49:31.989Z,4.10
2018-08-07T15:52:00.285Z,4.10
2018-08-07T15:54:27.841Z,4.00
2018-08-07T15:56:55.370Z,4.50
2018-08-07T15:59:24.857Z,4.10
2018-08-07T16:01:52.391Z,4.30
2018-08-07T16:04:20.718Z,4.40
2018-08-07T16:06:48.272Z,4.43
2018-08-07T16:09:15.890Z,4.33
2018-08-07T16:11:43.413Z,4.77
2018-08-07T16:14:10.966Z,4.67
2018-08-07T16:16:38.566Z,4.87
2018-08-07T16:19:06.314Z,4.70
2018-08-07T16:21:33.989Z,5.17
2018-08-07T16:24:01.523Z,4.67
2018-08-07T16:26:29.081Z,4.33
2018-08-07T16:28:56.645Z,4.40
2018-08-07T16:31:24.200Z,4.60
2018-08-07T16:33:51.756Z,4.40
2018-08-07T16:36:19.463Z,4.47
2018-08-07T16:38:47.021Z,4.73
2018-08-07T16:41:14.573Z,4.50
2018-08-07T16:43:43.178Z,4.60
2018-08-07T16:46:10.712Z,5.30
2018-08-07T16:48:38.278Z,5.50
2018-08-07T16:51:05.836Z,5.57
2018-08-07T16:53:33.400Z,4.60
2018-08-07T16:56:00.937Z,4.90
2018-08-07T16:58:29.234Z,4.30
2018-08-07T17:00:56.788Z,5.50
2018-08-07T17:03:25.277Z,5.30
2018-08-07T17:05:53.606Z,4.87
2018-08-07T17:08:21.135Z,6.43
2018-08-07T17:10:48.783Z,5.03
2018-08-07T17:13:17.990Z,5.20
2018-08-07T17:15:45.549Z,5.20
2018-08-07T17:18:13.077Z,5.50
2018-08-07T17:20:40.653Z,4.90
2018-08-07T17:23:08.185Z,5.47
2018-08-07T17:25:36.753Z,5.20
2018-08-07T17:28:04.276Z,5.20
2018-08-07T17:30:31.818Z,5.50
2018-08-07T17:32:59.380Z,5.97
2018-08-07T17:35:26.948Z,5.50
2018-08-07T17:37:54.500Z,5.07
2018-08-07T17:40:22.036Z,5.87
2018-08-07T17:42:49.592Z,5.20
2018-08-07T17:45:17.124Z,5.57
2018-08-07T17:47:44.679Z,6.07
2018-08-07T17:50:12.250Z,5.23
2018-08-07T17:52:39.811Z,6.10
2018-08-07T17:55:08.258Z,6.00
2018-08-07T17:57:35.827Z,5.33
2018-08-07T18:00:03.372Z,5.80
2018-08-07T18:02:30.953Z,5.00
2018-08-07T18:04:58.499Z,5.50
2018-08-07T18:07:26.065Z,6.07
2018-08-07T18:09:53.605Z,7.00
2018-08-07T18:12:22.155Z,5.87
2018-08-07T18:14:50.493Z,5.70
2018-08-07T18:17:18.286Z,5.53
2018-08-07T18:19:45.878Z,5.80
2018-08-07T18:22:13.462Z,5.60
2018-08-07T18:24:41.025Z,5.90
2018-08-07T18:27:08.579Z,5.43
2018-08-07T18:29:38.097Z,6.23
2018-08-07T18:32:05.675Z,5.70
2018-08-07T18:34:34.198Z,5.70
2018-08-07T18:37:02.762Z,5.63
2018-08-07T18:39:30.304Z,6.20
2018-08-07T18:42:00.597Z,6.10
2018-08-07T18:44:28.140Z,5.97
2018-08-07T18:46:55.706Z,6.43
2018-08-07T18:49:25.217Z,5.90
2018-08-07T18:51:52.786Z,5.50
2018-08-07T18:54:21.127Z,8.43
2018-08-07T18:56:48.674Z,5.30
2018-08-07T18:59:16.243Z,6.33
2018-08-07T19:01:43.778Z,6.30
2018-08-07T19:04:11.332Z,6.10
2018-08-07T19:06:39.821Z,5.90
2018-08-07T19:09:07.387Z,5.40
2018-08-07T19:11:34.917Z,6.67
2018-08-07T19:14:02.477Z,8.40
2018-08-07T19:16:30.013Z,6.07
2018-08-07T19:18:57.577Z,5.97
2018-08-07T19:21:25.117Z,6.00
2018-08-07T19:23:52.676Z,6.30
2018-08-07T19:26:20.217Z,5.87
2018-08-07T19:28:47.773Z,6.50
2018-08-07T19:31:16.261Z,6.17
2018-08-07T19:33:43.858Z,6.67
2018-08-07T19:36:11.377Z,8.30
2018-08-07T19:38:38.942Z,6.10
2018-08-07T19:41:07.468Z,12.20
2018-08-07T19:43:35.022Z,6.53
2018-08-07T19:46:02.669Z,6.10
2018-08-07T19:48:30.164Z,6.23
2018-08-07T19:50:57.693Z,5.70
2018-08-07T19:53:27.208Z,6.73
2018-08-07T19:55:54.790Z,5.53
2018-08-07T19:58:22.346Z,6.03
2018-08-07T20:00:50.660Z,7.03
2018-08-07T20:03:18.251Z,7.40
2018-08-07T20:05:45.809Z,6.20
2018-08-07T20:08:13.361Z,5.63
2018-08-07T20:10:40.900Z,14.83
2018-08-07T20:13:08.465Z,5.50
2018-08-07T20:15:35.997Z,6.50
2018-08-07T20:18:03.591Z,7.43
2018-08-07T20:20:31.145Z,6.50
2018-08-07T20:22:59.670Z,6.40
2018-08-07T20:25:27.970Z,7.97
2018-08-07T20:27:55.536Z,6.83
2018-08-07T20:30:23.108Z,10.13
2018-08-07T20:32:50.679Z,10.60
2018-08-07T20:35:18.220Z,9.93
2018-08-07T20:37:45.782Z,8.53
2018-08-07T20:40:13.340Z,5.90
2018-08-07T20:42:40.882Z,8.40
2018-08-07T20:45:08.441Z,5.70
2018-08-07T20:47:35.976Z,6.60
2018-08-07T20:50:05.496Z,5.93
2018-08-07T20:52:33.028Z,6.20
2018-08-07T20:55:02.593Z,6.80
2018-08-07T20:57:30.120Z,5.80
2018-08-07T20:59:57.650Z,6.00
2018-08-07T21:02:25.221Z,6.20
2018-08-07T21:04:52.764Z,6.17
2018-08-07T21:07:20.332Z,6.80
2018-08-07T21:09:47.898Z,6.53
2018-08-07T21:12:15.432Z,6.37
2018-08-07T21:14:42.989Z,6.70
2018-08-07T21:17:12.504Z,7.60
2018-08-07T21:19:40.045Z,6.30
2018-08-07T21:22:08.566Z,7.70
2018-08-07T21:24:36.126Z,6.63
2018-08-07T21:27:03.658Z,6.63
2018-08-07T21:29:31.228Z,6.30
2018-08-07T21:31:58.794Z,6.40
2018-08-07T21:34:26.364Z,6.50
2018-08-07T21:36:53.897Z,7.50
2018-08-07T21:39:21.449Z,6.40
2018-08-07T21:41:49.023Z,6.93
2018-08-07T21:44:16.585Z,7.00
2018-08-07T21:46:44.128Z,6.20
2018-08-07T21:49:11.672Z,6.90
2018-08-07T21:51:39.232Z,5.87
2018-08-07T21:54:06.771Z,6.70
2018-08-07T21:56:34.336Z,6.60
2018-08-07T21:59:01.881Z,6.90
2018-08-07T22:01:31.401Z,6.80
2018-08-07T22:03:58.933Z,6.13
2018-08-07T22:06:27.490Z,5.73
2018-08-07T22:08:55.030Z,8.10
2018-08-07T22:11:22.589Z,6.33
2018-08-07T22:13:50.214Z,6.03
2018-08-07T22:16:17.773Z,5.90
2018-08-07T22:18:45.336Z,6.47
2018-08-07T22:21:13.841Z,6.43
2018-08-07T22:23:42.377Z,6.60
2018-08-07T22:26:10.884Z,5.70
2018-08-07T22:28:38.441Z,6.30
2018-08-07T22:31:06.002Z,6.60
2018-08-07T22:33:33.558Z,6.90
2018-08-07T22:36:01.099Z,6.20
2018-08-07T22:38:30.649Z,6.43
2018-08-07T22:40:58.204Z,6.67
2018-08-07T22:43:25.738Z,6.47
2018-08-07T22:45:53.313Z,6.87
2018-08-07T22:48:20.849Z,6.43
2018-08-07T22:50:48.382Z,6.23
2018-08-07T22:53:15.938Z,6.30
2018-08-07T22:55:43.506Z,6.67
2018-08-07T22:58:11.067Z,6.67
2018-08-07T23:00:38.600Z,6.90
2018-08-07T23:03:06.158Z,6.50
2018-08-07T23:05:33.717Z,6.70
2018-08-07T23:08:01.286Z,11.33
2018-08-07T23:10:28.819Z,6.87
2018-08-07T23:12:56.385Z,6.70
2018-08-07T23:15:23.963Z,7.83
2018-08-07T23:17:51.531Z,6.20
2018-08-07T23:20:19.097Z,6.80
2018-08-07T23:22:46.658Z,6.77
2018-08-07T23:25:14.193Z,5.80
2018-08-07T23:27:41.760Z,6.83
2018-08-07T23:30:09.289Z,7.13
2018-08-07T23:32:36.853Z,8.10
2018-08-07T23:35:04.398Z,6.27
2018-08-07T23:37:31.956Z,6.30
2018-08-07T23:39:59.493Z,14.93
2018-08-07T23:42:27.061Z,6.20
2018-08-07T23:44:54.598Z,6.17
2018-08-07T23:47:22.903Z,6.50
2018-08-07T23:49:50.521Z,6.87
2018-08-07T23:52:18.054Z,6.10
2018-08-07T23:54:45.626Z,6.77
2018-08-07T23:57:13.166Z,6.40
2018-08-07T23:59:40.727Z,6.10
